createdAt,value
2023-01-17T00:01:46.575Z,10.22
2023-01-17T00:04:32.898Z,10.21
2023-01-17T00:07:18.349Z,10.20
2023-01-17T00:09:54.155Z,10.19
2023-01-17T00:12:22.940Z,10.12
2023-01-17T00:14:53.968Z,10.13
2023-01-17T00:17:21.534Z,10.21
2023-01-17T00:20:07.098Z,10.22
2023-01-17T00:22:53.115Z,10.15
2023-01-17T00:25:43.423Z,10.14
2023-01-17T00:28:10.613Z,10.16
2023-01-17T00:30:39.017Z,10.26
2023-01-17T00:33:05.921Z,10.33
2023-01-17T00:35:33.869Z,10.38
2023-01-17T00:38:03.168Z,10.43
2023-01-17T00:40:30.821Z,10.45
2023-01-17T00:43:16.468Z,10.40
2023-01-17T00:46:04.688Z,10.34
2023-01-17T00:48:51.167Z,10.26
2023-01-17T00:51:38.233Z,10.19
2023-01-17T00:54:24.330Z,10.17
2023-01-17T00:57:10.457Z,10.19
2023-01-17T00:59:55.980Z,10.24
2023-01-17T01:02:44.417Z,10.25
2023-01-17T01:05:32.655Z,10.30
2023-01-17T01:08:18.269Z,10.33
2023-01-17T01:11:05.354Z,10.33
2023-01-17T01:13:51.903Z,10.40
2023-01-17T01:16:39.048Z,10.52
2023-01-17T01:19:25.870Z,10.62
2023-01-17T01:22:11.448Z,10.66
2023-01-17T01:24:57.084Z,10.71
2023-01-17T01:27:42.624Z,10.68
2023-01-17T01:30:30.084Z,10.63
2023-01-17T01:33:15.731Z,10.55
2023-01-17T01:35:44.135Z,10.52
2023-01-17T01:38:11.078Z,10.49
2023-01-17T01:40:47.648Z,10.48
2023-01-17T01:43:18.181Z,10.48
2023-01-17T01:45:51.706Z,10.48
2023-01-17T01:48:35.282Z,10.39
2023-01-17T01:51:11.913Z,10.31
2023-01-17T01:53:46.074Z,10.24
2023-01-17T01:56:15.396Z,10.16
2023-01-17T01:58:48.048Z,10.09
2023-01-17T02:01:16.004Z,10.06
2023-01-17T02:03:44.364Z,10.05
2023-01-17T02:06:27.324Z,10.00
2023-01-17T02:08:55.888Z,10.00
2023-01-17T02:11:22.912Z,9.96
2023-01-17T02:13:49.816Z,9.94
2023-01-17T02:16:38.081Z,9.90
2023-01-17T02:19:37.632Z,9.87
2023-01-17T02:22:33.299Z,9.81
2023-01-17T02:25:31.074Z,9.78
2023-01-17T02:28:23.932Z,9.77
2023-01-17T02:30:57.792Z,9.82
2023-01-17T02:33:33.850Z,9.78
2023-01-17T02:36:10.851Z,9.77
2023-01-17T02:38:50.998Z,9.75
2023-01-17T02:41:23.567Z,9.77
2023-01-17T02:43:51.531Z,9.75
2023-01-17T02:46:20.070Z,9.74
2023-01-17T02:48:48.975Z,9.75
2023-01-17T02:51:51.294Z,9.73
2023-01-17T02:54:39.371Z,9.74
2023-01-17T02:57:29.731Z,9.76
2023-01-17T03:00:06.611Z,9.77
2023-01-17T03:02:48.722Z,9.80
2023-01-17T03:05:23.867Z,9.85
2023-01-17T03:07:52.745Z,9.85
2023-01-17T03:10:21.611Z,9.86
2023-01-17T03:12:48.648Z,9.85
2023-01-17T03:15:17.607Z,9.84
2023-01-17T03:17:51.913Z,9.83
2023-01-17T03:20:21.584Z,9.87
2023-01-17T03:22:49.427Z,9.88
2023-01-17T03:25:17.463Z,9.87
2023-01-17T03:27:44.603Z,9.86
2023-01-17T03:30:13.005Z,9.87
2023-01-17T03:32:39.913Z,9.86
2023-01-17T03:35:09.381Z,9.88
2023-01-17T03:37:36.243Z,9.89
2023-01-17T03:40:03.569Z,9.88
2023-01-17T03:42:30.413Z,9.90
2023-01-17T03:44:57.306Z,9.89
2023-01-17T03:47:24.291Z,9.87
2023-01-17T03:49:51.801Z,9.83
2023-01-17T03:52:20.041Z,9.82
2023-01-17T03:54:48.362Z,9.83
2023-01-17T03:57:15.685Z,9.84
2023-01-17T03:59:42.600Z,9.87
2023-01-17T04:02:09.658Z,9.90
2023-01-17T04:04:36.645Z,9.93
2023-01-17T04:07:03.583Z,9.95
2023-01-17T04:09:33.994Z,9.97
2023-01-17T04:12:01.633Z,9.98
2023-01-17T04:14:28.589Z,10.00
2023-01-17T04:16:56.448Z,10.03
2023-01-17T04:19:23.572Z,10.05
2023-01-17T04:21:50.980Z,10.06
2023-01-17T04:24:18.246Z,10.05
2023-01-17T04:26:46.462Z,10.03
2023-01-17T04:29:13.318Z,10.02
2023-01-17T04:31:40.312Z,10.00
2023-01-17T04:34:07.245Z,9.99
2023-01-17T04:36:34.194Z,9.97
2023-01-17T04:39:01.081Z,9.96
2023-01-17T04:41:27.951Z,9.92
2023-01-17T04:43:56.377Z,9.88
2023-01-17T04:46:23.697Z,9.85
2023-01-17T04:48:50.616Z,9.84
2023-01-17T04:51:17.493Z,9.82
2023-01-17T04:53:44.366Z,9.82
2023-01-17T04:56:11.331Z,9.82
2023-01-17T04:58:38.438Z,9.83
2023-01-17T05:01:08.509Z,9.83
2023-01-17T05:03:36.318Z,9.86
2023-01-17T05:06:03.412Z,9.86
2023-01-17T05:08:30.377Z,9.86
2023-01-17T05:10:57.285Z,9.88
2023-01-17T05:13:24.208Z,9.92
2023-01-17T05:15:51.394Z,9.95
2023-01-17T05:18:19.842Z,9.96
2023-01-17T05:20:46.949Z,9.96
2023-01-17T05:23:13.936Z,9.94
2023-01-17T05:25:44.733Z,9.95
2023-01-17T05:28:13.521Z,9.96
2023-01-17T05:30:41.003Z,9.97
2023-01-17T05:33:10.012Z,9.98
2023-01-17T05:35:38.523Z,9.96
2023-01-17T05:38:05.492Z,9.96
2023-01-17T05:40:34.082Z,9.97
2023-01-17T05:43:05.336Z,9.96
2023-01-17T05:45:33.561Z,9.99
2023-01-17T05:48:01.356Z,10.01
2023-01-17T05:50:31.666Z,10.02
2023-01-17T05:53:03.661Z,10.05
2023-01-17T05:55:32.333Z,10.07
2023-01-17T05:57:59.891Z,10.05
2023-01-17T06:00:27.344Z,10.02
2023-01-17T06:02:56.215Z,9.99
2023-01-17T06:05:24.745Z,9.97
2023-01-17T06:07:51.876Z,9.96
2023-01-17T06:10:22.187Z,9.86
2023-01-17T06:12:49.727Z,9.71
2023-01-17T06:15:18.176Z,9.54
2023-01-17T06:17:45.152Z,9.34
2023-01-17T06:20:12.980Z,9.20
2023-01-17T06:22:40.100Z,9.12
2023-01-17T06:25:07.992Z,9.06
2023-01-17T06:27:36.206Z,9.00
2023-01-17T06:30:03.600Z,8.96
2023-01-17T06:32:30.650Z,8.89
2023-01-17T06:34:57.528Z,8.85
2023-01-17T06:37:24.562Z,8.84
2023-01-17T06:39:51.457Z,8.79
2023-01-17T06:42:18.345Z,8.75
2023-01-17T06:44:46.749Z,8.72
2023-01-17T06:47:13.684Z,8.70
2023-01-17T06:49:40.550Z,8.68
2023-01-17T06:52:07.438Z,8.66
2023-01-17T06:54:34.325Z,8.63
2023-01-17T06:57:01.284Z,8.59
2023-01-17T06:59:29.021Z,8.61
2023-01-17T07:01:57.198Z,8.63
2023-01-17T07:04:28.472Z,8.64
2023-01-17T07:06:55.740Z,8.62
2023-01-17T07:09:22.646Z,8.58
2023-01-17T07:11:51.677Z,8.56
2023-01-17T07:14:18.596Z,8.56
2023-01-17T07:16:46.800Z,8.53
2023-01-17T07:19:14.978Z,8.53
2023-01-17T07:21:41.934Z,8.54
2023-01-17T07:24:09.400Z,8.56
2023-01-17T07:26:37.961Z,8.56
2023-01-17T07:29:05.531Z,8.55
2023-01-17T07:31:38.325Z,8.56
2023-01-17T07:34:05.688Z,8.54
2023-01-17T07:36:34.272Z,8.51
2023-01-17T07:39:01.586Z,8.48
2023-01-17T07:41:31.077Z,8.48
2023-01-17T07:43:59.024Z,8.51
2023-01-17T07:46:26.192Z,8.55
2023-01-17T07:48:53.175Z,8.57
2023-01-17T07:51:20.483Z,8.57
2023-01-17T07:53:50.039Z,8.52
2023-01-17T07:56:17.851Z,8.49
2023-01-17T07:58:44.884Z,8.50
2023-01-17T08:01:15.511Z,8.48
2023-01-17T08:03:43.877Z,8.49
2023-01-17T08:06:20.303Z,8.49
2023-01-17T08:08:52.205Z,8.49
2023-01-17T08:11:23.302Z,8.49
2023-01-17T08:13:57.134Z,8.48
2023-01-17T08:16:25.280Z,8.44
2023-01-17T08:18:53.101Z,8.42
2023-01-17T08:21:20.068Z,8.40
2023-01-17T08:23:50.150Z,8.38
2023-01-17T08:26:22.465Z,8.35
2023-01-17T08:28:55.736Z,8.28
2023-01-17T08:31:24.794Z,8.27
2023-01-17T08:33:52.003Z,8.25
2023-01-17T08:39:23.235Z,8.24
2023-01-17T08:41:50.186Z,8.27
2023-01-17T08:44:18.604Z,8.30
2023-01-17T08:46:45.857Z,8.31
2023-01-17T08:49:14.298Z,8.34
2023-01-17T08:51:41.611Z,8.30
2023-01-17T08:54:12.798Z,8.30
2023-01-17T08:56:46.798Z,8.30
2023-01-17T08:59:14.388Z,8.32
2023-01-17T09:01:45.742Z,8.35
2023-01-17T09:04:14.710Z,8.36
2023-01-17T09:06:48.790Z,8.33
2023-01-17T09:09:17.548Z,8.33
2023-01-17T09:11:46.264Z,8.35
2023-01-17T09:14:13.829Z,8.35
2023-01-17T09:16:41.262Z,8.35
2023-01-17T09:19:09.843Z,8.37
2023-01-17T09:21:36.807Z,8.42
2023-01-17T09:24:13.700Z,8.41
2023-01-17T09:26:41.337Z,8.42
2023-01-17T09:29:10.330Z,8.46
2023-01-17T09:31:38.321Z,8.49
2023-01-17T09:34:06.618Z,8.49
2023-01-17T09:36:34.794Z,8.51
2023-01-17T09:39:04.237Z,8.58
2023-01-17T09:41:35.982Z,8.68
2023-01-17T09:44:14.063Z,8.74
2023-01-17T09:46:46.690Z,8.82
2023-01-17T09:49:36.787Z,8.84
2023-01-17T09:52:07.470Z,8.88
2023-01-17T09:54:40.921Z,8.90
2023-01-17T09:57:24.556Z,8.96
2023-01-17T10:00:04.149Z,9.03
2023-01-17T10:02:56.120Z,9.10
2023-01-17T10:05:46.765Z,9.27
2023-01-17T10:08:33.587Z,9.54
2023-01-17T10:11:37.216Z,9.80
2023-01-17T10:14:36.438Z,10.30
2023-01-17T10:17:18.519Z,10.86
2023-01-17T10:20:11.060Z,11.36
2023-01-17T10:23:03.881Z,11.78
2023-01-17T10:25:46.263Z,12.05
2023-01-17T10:28:18.244Z,12.29
2023-01-17T10:30:50.378Z,12.43
2023-01-17T10:33:26.116Z,12.57
2023-01-17T10:35:57.820Z,12.64
2023-01-17T10:38:31.882Z,12.73
2023-01-17T10:41:09.209Z,12.75
2023-01-17T10:43:45.441Z,12.65
2023-01-17T10:46:19.729Z,12.37
2023-01-17T10:48:52.362Z,12.10
2023-01-17T10:51:59.785Z,11.80
2023-01-17T10:54:51.388Z,11.57
2023-01-17T10:57:22.433Z,11.34
2023-01-17T10:59:50.747Z,11.15
2023-01-17T11:02:25.716Z,10.98
2023-01-17T11:04:57.454Z,10.86
2023-01-17T11:07:28.232Z,10.79
2023-01-17T11:09:57.959Z,10.71
2023-01-17T11:12:30.467Z,10.65
2023-01-17T11:15:17.733Z,10.57
2023-01-17T11:17:52.856Z,10.50
2023-01-17T11:20:29.770Z,10.46
2023-01-17T11:23:15.499Z,10.39
2023-01-17T11:25:51.634Z,10.36
2023-01-17T11:28:33.158Z,10.30
2023-01-17T11:31:07.929Z,10.30
2023-01-17T11:33:48.949Z,10.31
2023-01-17T11:36:24.661Z,10.32
2023-01-17T11:39:06.799Z,10.34
2023-01-17T11:41:37.762Z,10.36
2023-01-17T11:44:23.262Z,10.40
2023-01-17T11:47:14.749Z,10.83
2023-01-17T11:49:44.536Z,11.82
2023-01-17T11:52:23.387Z,12.54
2023-01-17T11:54:53.734Z,13.17
2023-01-17T11:57:26.073Z,13.57
2023-01-17T12:00:03.647Z,14.02
2023-01-17T12:02:52.390Z,14.15
2023-01-17T12:05:39.225Z,14.33
2023-01-17T12:08:23.760Z,14.48
2023-01-17T12:11:04.140Z,14.50
2023-01-17T12:14:02.159Z,14.47
2023-01-17T12:16:49.957Z,14.59
2023-01-17T12:19:38.752Z,14.72
2023-01-17T12:22:34.036Z,14.59
2023-01-17T12:25:24.693Z,14.53
2023-01-17T12:28:17.110Z,14.29
2023-01-17T12:31:03.203Z,14.14
2023-01-17T12:33:45.875Z,13.98
2023-01-17T12:36:35.782Z,13.74
2023-01-17T12:39:10.016Z,13.55
2023-01-17T12:41:52.905Z,13.39
2023-01-17T12:44:37.666Z,13.27
2023-01-17T12:47:06.128Z,13.12
2023-01-17T12:49:48.322Z,12.91
2023-01-17T12:52:27.510Z,12.70
2023-01-17T12:55:02.653Z,12.52
2023-01-17T12:57:40.594Z,12.40
2023-01-17T13:00:14.223Z,12.34
2023-01-17T13:02:51.371Z,12.42
2023-01-17T13:05:26.058Z,12.50
2023-01-17T13:08:06.519Z,12.46
2023-01-17T13:10:39.760Z,12.57
2023-01-17T13:13:22.135Z,12.54
2023-01-17T13:15:54.449Z,12.41
2023-01-17T13:18:26.350Z,12.25
2023-01-17T13:21:36.466Z,12.45
2023-01-17T13:24:26.253Z,12.14
2023-01-17T13:27:26.762Z,11.90
2023-01-17T13:30:31.296Z,11.76
2023-01-17T13:33:37.235Z,11.68
2023-01-17T13:36:29.688Z,11.61
2023-01-17T13:39:16.294Z,11.55
2023-01-17T13:41:50.311Z,11.52
2023-01-17T13:44:24.483Z,11.95
2023-01-17T13:47:01.794Z,11.53
2023-01-17T13:49:35.770Z,11.38
2023-01-17T13:52:09.613Z,11.31
2023-01-17T13:54:45.749Z,11.25
2023-01-17T13:57:42.035Z,11.16
2023-01-17T14:00:58.192Z,11.01
2023-01-17T14:04:05.058Z,10.89
2023-01-17T14:06:46.768Z,10.86
2023-01-17T14:09:24.666Z,10.79
2023-01-17T14:12:00.313Z,10.74
2023-01-17T14:14:45.516Z,10.67
2023-01-17T14:17:50.099Z,10.56
2023-01-17T14:21:17.449Z,10.47
2023-01-17T14:23:58.245Z,10.44
2023-01-17T14:26:49.673Z,10.42
2023-01-17T14:29:57.003Z,10.38
2023-01-17T14:32:28.818Z,10.38
2023-01-17T14:34:57.157Z,10.37
2023-01-17T14:37:41.473Z,10.34
2023-01-17T14:40:20.446Z,10.27
2023-01-17T14:42:57.791Z,10.20
2023-01-17T14:45:29.541Z,10.13
2023-01-17T14:47:59.482Z,10.12
2023-01-17T14:50:29.796Z,10.07
2023-01-17T14:53:18.566Z,10.01
2023-01-17T14:55:57.982Z,9.97
2023-01-17T14:58:28.350Z,9.96
2023-01-17T15:01:00.409Z,9.71
2023-01-17T15:03:29.240Z,9.69
2023-01-17T15:06:09.601Z,9.53
2023-01-17T15:08:36.753Z,9.51
2023-01-17T15:11:08.810Z,9.52
2023-01-17T15:13:44.757Z,9.58
2023-01-17T15:16:23.404Z,9.61
2023-01-17T15:18:52.135Z,9.65
2023-01-17T15:21:22.395Z,9.66
2023-01-17T15:23:54.079Z,9.68
2023-01-17T15:26:25.933Z,9.60
2023-01-17T15:29:02.558Z,9.59
2023-01-17T15:31:42.304Z,9.53
2023-01-17T15:34:22.798Z,9.48
2023-01-17T15:36:50.717Z,9.42
2023-01-17T15:39:21.907Z,9.41
2023-01-17T15:41:53.174Z,9.40
2023-01-17T15:44:42.636Z,9.31
2023-01-17T15:47:29.047Z,9.10
2023-01-17T15:49:56.476Z,9.07
2023-01-17T15:52:23.463Z,9.05
2023-01-17T15:54:53.412Z,9.02
2023-01-17T15:57:27.387Z,8.96
2023-01-17T16:00:00.002Z,8.94
2023-01-17T16:02:42.893Z,8.89
2023-01-17T16:05:41.932Z,8.90
2023-01-17T16:08:51.045Z,8.91
2023-01-17T16:11:18.889Z,8.94
2023-01-17T16:13:54.487Z,8.95
2023-01-17T16:16:25.716Z,8.95
2023-01-17T16:19:00.319Z,8.90
2023-01-17T16:21:29.318Z,8.71
2023-01-17T16:23:57.768Z,8.69
2023-01-17T16:26:25.354Z,8.69
2023-01-17T16:28:53.734Z,8.66
2023-01-17T16:31:20.900Z,8.64
2023-01-17T16:33:50.578Z,8.61
2023-01-17T16:36:19.446Z,8.54
2023-01-17T16:38:51.252Z,8.48
2023-01-17T16:41:19.031Z,8.41
2023-01-17T16:43:48.281Z,8.36
2023-01-17T16:46:20.565Z,8.30
2023-01-17T16:48:50.942Z,8.29
2023-01-17T16:51:45.864Z,8.16
2023-01-17T16:54:13.845Z,8.10
2023-01-17T16:56:43.849Z,8.02
2023-01-17T16:59:11.111Z,7.96
2023-01-17T17:01:39.587Z,7.95
2023-01-17T17:04:06.936Z,7.85
2023-01-17T17:06:34.242Z,7.84
2023-01-17T17:09:01.606Z,7.80
2023-01-17T17:11:28.596Z,7.77
2023-01-17T17:13:55.729Z,7.74
2023-01-17T17:16:26.447Z,7.69
2023-01-17T17:19:00.439Z,7.67
2023-01-17T17:21:29.847Z,7.60
2023-01-17T17:24:00.151Z,7.57
2023-01-17T17:26:31.207Z,7.53
2023-01-17T17:28:58.696Z,7.45
2023-01-17T17:31:26.469Z,7.42
2023-01-17T17:34:02.739Z,7.29
2023-01-17T17:36:30.475Z,7.27
2023-01-17T17:38:58.333Z,7.26
2023-01-17T17:41:28.461Z,7.22
2023-01-17T17:43:55.673Z,7.20
2023-01-17T17:46:25.836Z,7.20
2023-01-17T17:48:53.296Z,7.12
2023-01-17T17:51:26.250Z,7.05
2023-01-17T17:53:54.428Z,7.00
2023-01-17T17:56:22.383Z,7.01
2023-01-17T17:58:50.098Z,6.99
2023-01-17T18:01:17.281Z,6.95
2023-01-17T18:03:44.731Z,6.97
2023-01-17T18:06:13.190Z,6.93
2023-01-17T18:08:41.681Z,6.85
2023-01-17T18:11:13.887Z,6.80
2023-01-17T18:13:42.684Z,6.71
2023-01-17T18:16:14.309Z,6.68
2023-01-17T18:18:46.448Z,6.71
2023-01-17T18:21:16.788Z,6.73
2023-01-17T18:23:45.499Z,6.75
2023-01-17T18:26:19.006Z,6.73
2023-01-17T18:28:47.722Z,6.77
2023-01-17T18:31:15.477Z,6.73
2023-01-17T18:33:43.111Z,6.69
2023-01-17T18:36:13.288Z,6.64
2023-01-17T18:38:43.831Z,6.59
2023-01-17T18:41:15.271Z,6.61
2023-01-17T18:43:43.356Z,6.64
2023-01-17T18:46:11.680Z,6.67
2023-01-17T18:48:45.549Z,6.70
2023-01-17T18:51:16.753Z,6.64
2023-01-17T18:53:46.102Z,6.63
2023-01-17T18:56:18.080Z,6.57
2023-01-17T18:58:48.093Z,6.59
2023-01-17T19:01:17.862Z,6.52
2023-01-17T19:03:48.158Z,6.47
2023-01-17T19:06:18.536Z,6.45
2023-01-17T19:08:45.774Z,6.44
2023-01-17T19:11:14.319Z,6.44
2023-01-17T19:13:44.323Z,6.43
2023-01-17T19:16:15.364Z,6.46
2023-01-17T19:18:43.083Z,6.43
2023-01-17T19:21:13.509Z,6.46
2023-01-17T19:23:45.551Z,6.42
2023-01-17T19:26:17.074Z,6.44
2023-01-17T19:28:46.434Z,6.53
2023-01-17T19:31:16.320Z,6.51
2023-01-17T19:33:45.586Z,6.53
2023-01-17T19:36:18.792Z,6.54
2023-01-17T19:39:02.952Z,6.56
2023-01-17T19:41:34.302Z,6.56
2023-01-17T19:44:04.433Z,6.52
2023-01-17T19:46:32.882Z,6.52
2023-01-17T19:49:00.294Z,6.54
2023-01-17T19:51:27.807Z,6.54
2023-01-17T19:53:55.224Z,6.60
2023-01-17T19:56:25.191Z,6.65
2023-01-17T19:58:54.256Z,6.65
2023-01-17T20:01:24.468Z,6.56
2023-01-17T20:03:52.339Z,6.51
2023-01-17T20:06:22.431Z,6.48
2023-01-17T20:08:50.325Z,6.51
2023-01-17T20:11:20.175Z,6.56
2023-01-17T20:13:49.185Z,6.60
2023-01-17T20:16:18.271Z,6.66
2023-01-17T20:18:45.627Z,6.71
2023-01-17T20:21:17.117Z,6.75
2023-01-17T20:23:47.249Z,6.82
2023-01-17T20:26:15.742Z,6.89
2023-01-17T20:28:47.198Z,6.94
2023-01-17T20:31:18.515Z,6.94
2023-01-17T20:33:46.995Z,6.84
2023-01-17T20:36:16.652Z,6.85
2023-01-17T20:38:44.938Z,6.88
2023-01-17T20:41:14.994Z,6.90
2023-01-17T20:43:43.344Z,6.97
2023-01-17T20:46:11.404Z,7.03
2023-01-17T20:48:44.891Z,7.07
2023-01-17T20:51:13.167Z,7.13
2023-01-17T20:53:43.206Z,7.18
2023-01-17T20:56:15.277Z,7.23
2023-01-17T20:58:42.984Z,7.26
2023-01-17T21:01:13.442Z,7.27
2023-01-17T21:03:42.278Z,7.28
2023-01-17T21:06:13.781Z,7.29
2023-01-17T21:08:43.665Z,7.27
2023-01-17T21:11:16.513Z,7.11
2023-01-17T21:13:44.850Z,6.95
2023-01-17T21:16:14.155Z,6.81
2023-01-17T21:18:45.398Z,6.67
2023-01-17T21:21:16.940Z,6.57
2023-01-17T21:23:44.933Z,6.45
2023-01-17T21:26:15.128Z,6.29
2023-01-17T21:28:44.533Z,6.17
2023-01-17T21:31:22.936Z,6.13
2023-01-17T21:33:55.038Z,6.04
2023-01-17T21:36:25.129Z,5.97
2023-01-17T21:38:56.674Z,5.97
2023-01-17T21:41:28.351Z,5.88
2023-01-17T21:43:57.364Z,5.80
2023-01-17T21:46:25.384Z,5.76
2023-01-17T21:48:53.853Z,5.74
2023-01-17T21:51:21.678Z,5.74
2023-01-17T21:53:48.693Z,5.73
2023-01-17T21:56:34.919Z,5.67
2023-01-17T21:59:01.828Z,5.61
2023-01-17T22:01:32.994Z,5.56
2023-01-17T22:04:03.509Z,5.55
2023-01-17T22:06:36.307Z,5.59
2023-01-17T22:09:04.295Z,5.58
2023-01-17T22:11:31.302Z,5.48
2023-01-17T22:13:59.401Z,5.42
2023-01-17T22:16:26.438Z,5.38
2023-01-17T22:18:53.498Z,5.38
2023-01-17T22:21:25.085Z,5.35
2023-01-17T22:23:54.940Z,5.42
2023-01-17T22:26:24.765Z,5.45
2023-01-17T22:28:52.311Z,5.41
2023-01-17T22:31:22.423Z,5.38
2023-01-17T22:33:54.325Z,5.37
2023-01-17T22:36:23.434Z,5.37
2023-01-17T22:38:51.116Z,5.36
2023-01-17T22:41:21.693Z,5.36
2023-01-17T22:43:50.721Z,5.37
2023-01-17T22:46:21.571Z,5.35
2023-01-17T22:48:49.219Z,5.34
2023-01-17T22:51:18.990Z,5.37
2023-01-17T22:53:49.892Z,5.37
2023-01-17T22:56:19.653Z,5.39
2023-01-17T22:58:55.610Z,5.44
2023-01-17T23:01:47.028Z,5.41
2023-01-17T23:04:17.043Z,5.40
2023-01-17T23:06:44.022Z,5.35
2023-01-17T23:09:15.279Z,5.32
2023-01-17T23:11:47.149Z,5.32
2023-01-17T23:14:17.722Z,5.31
2023-01-17T23:17:05.844Z,5.28
2023-01-17T23:19:36.648Z,5.27
2023-01-17T23:22:16.284Z,5.22
2023-01-17T23:24:48.791Z,5.22
2023-01-17T23:27:37.678Z,5.30
2023-01-17T23:30:07.692Z,5.29
2023-01-17T23:32:34.667Z,5.28
2023-01-17T23:35:01.644Z,5.30
2023-01-17T23:37:49.465Z,5.34
2023-01-17T23:40:19.095Z,5.34
2023-01-17T23:43:04.919Z,5.35
2023-01-17T23:45:35.639Z,5.29
2023-01-17T23:48:05.376Z,5.28
2023-01-17T23:50:32.884Z,5.22
2023-01-17T23:53:00.230Z,5.20
2023-01-17T23:55:28.613Z,5.16
2023-01-17T23:57:55.933Z,5.15
